sensor_id;sensor_type;location;lat;lon;timestamp;P1;durP1;ratioP1;P2;durP2;ratioP2
9140;SDS011;46330;50.822;7.126;2023-05-21T00:00:52;12.23;;;9.35;;
9140;SDS011;46330;50.822;7.126;2023-05-21T00:03:20;15.52;;;9.48;;
9140;SDS011;46330;50.822;7.126;2023-05-21T00:05:52;12.82;;;9.05;;
9140;SDS011;46330;50.822;7.126;2023-05-21T00:08:20;13.32;;;9.52;;
9140;SDS011;46330;50.822;7.126;2023-05-21T00:10:48;13.35;;;9.45;;
9140;SDS011;46330;50.822;7.126;2023-05-21T00:13:16;15.68;;;9.32;;
9140;SDS011;46330;50.822;7.126;2023-05-21T00:15:44;14.25;;;9.88;;
9140;SDS011;46330;50.822;7.126;2023-05-21T00:18:14;14.55;;;9.43;;
9140;SDS011;46330;50.822;7.126;2023-05-21T00:20:42;14.00;;;9.98;;
9140;SDS011;46330;50.822;7.126;2023-05-21T00:23:11;12.68;;;9.27;;
9140;SDS011;46330;50.822;7.126;2023-05-21T00:25:39;14.90;;;9.98;;
9140;SDS011;46330;50.822;7.126;2023-05-21T00:28:07;13.55;;;9.63;;
9140;SDS011;46330;50.822;7.126;2023-05-21T00:30:35;17.08;;;9.63;;
9140;SDS011;46330;50.822;7.126;2023-05-21T00:33:03;15.63;;;9.77;;
9140;SDS011;46330;50.822;7.126;2023-05-21T00:35:33;13.85;;;9.50;;
9140;SDS011;46330;50.822;7.126;2023-05-21T00:38:01;13.77;;;9.70;;
9140;SDS011;46330;50.822;7.126;2023-05-21T00:40:29;13.32;;;9.88;;
9140;SDS011;46330;50.822;7.126;2023-05-21T00:42:57;14.07;;;10.30;;
9140;SDS011;46330;50.822;7.126;2023-05-21T00:45:25;12.60;;;9.77;;
9140;SDS011;46330;50.822;7.126;2023-05-21T00:47:55;16.27;;;10.40;;
9140;SDS011;46330;50.822;7.126;2023-05-21T00:50:23;15.38;;;10.15;;
9140;SDS011;46330;50.822;7.126;2023-05-21T00:52:52;13.82;;;10.00;;
9140;SDS011;46330;50.822;7.126;2023-05-21T00:55:20;13.45;;;9.88;;
9140;SDS011;46330;50.822;7.126;2023-05-21T00:57:49;15.07;;;9.85;;
9140;SDS011;46330;50.822;7.126;2023-05-21T01:00:17;17.92;;;10.82;;
9140;SDS011;46330;50.822;7.126;2023-05-21T01:02:45;15.98;;;10.40;;
9140;SDS011;46330;50.822;7.126;2023-05-21T01:05:15;17.73;;;10.80;;
9140;SDS011;46330;50.822;7.126;2023-05-21T01:07:43;18.05;;;10.68;;
9140;SDS011;46330;50.822;7.126;2023-05-21T01:10:13;14.43;;;10.73;;
9140;SDS011;46330;50.822;7.126;2023-05-21T01:12:41;16.80;;;10.77;;
9140;SDS011;46330;50.822;7.126;2023-05-21T01:15:11;15.55;;;10.18;;
9140;SDS011;46330;50.822;7.126;2023-05-21T01:17:39;17.83;;;10.38;;
9140;SDS011;46330;50.822;7.126;2023-05-21T01:20:11;15.10;;;10.50;;
9140;SDS011;46330;50.822;7.126;2023-05-21T01:22:40;17.17;;;11.00;;
9140;SDS011;46330;50.822;7.126;2023-05-21T01:25:11;16.30;;;10.82;;
9140;SDS011;46330;50.822;7.126;2023-05-21T01:27:40;17.30;;;11.55;;
9140;SDS011;46330;50.822;7.126;2023-05-21T01:30:08;17.08;;;11.15;;
9140;SDS011;46330;50.822;7.126;2023-05-21T01:32:39;15.52;;;10.68;;
9140;SDS011;46330;50.822;7.126;2023-05-21T01:35:23;16.90;;;10.80;;
9140;SDS011;46330;50.822;7.126;2023-05-21T01:37:56;15.93;;;10.95;;
9140;SDS011;46330;50.822;7.126;2023-05-21T01:40:33;15.05;;;10.85;;
9140;SDS011;46330;50.822;7.126;2023-05-21T01:43:04;17.30;;;12.02;;
9140;SDS011;46330;50.822;7.126;2023-05-21T01:45:34;15.57;;;10.48;;
9140;SDS011;46330;50.822;7.126;2023-05-21T01:48:06;15.52;;;10.90;;
9140;SDS011;46330;50.822;7.126;2023-05-21T01:50:36;16.65;;;10.70;;
9140;SDS011;46330;50.822;7.126;2023-05-21T01:53:05;15.50;;;11.07;;
9140;SDS011;46330;50.822;7.126;2023-05-21T01:55:35;16.42;;;11.63;;
9140;SDS011;46330;50.822;7.126;2023-05-21T01:58:07;17.35;;;11.38;;
9140;SDS011;46330;50.822;7.126;2023-05-21T02:00:35;15.25;;;11.20;;
9140;SDS011;46330;50.822;7.126;2023-05-21T02:03:05;18.48;;;12.10;;
9140;SDS011;46330;50.822;7.126;2023-05-21T02:05:33;17.35;;;11.68;;
9140;SDS011;46330;50.822;7.126;2023-05-21T02:08:02;15.88;;;11.50;;
9140;SDS011;46330;50.822;7.126;2023-05-21T02:10:31;17.40;;;11.75;;
9140;SDS011;46330;50.822;7.126;2023-05-21T02:13:00;17.10;;;11.27;;
9140;SDS011;46330;50.822;7.126;2023-05-21T02:15:28;16.52;;;11.93;;
9140;SDS011;46330;50.822;7.126;2023-05-21T02:18:00;18.55;;;10.85;;
9140;SDS011;46330;50.822;7.126;2023-05-21T02:20:29;17.70;;;11.63;;
9140;SDS011;46330;50.822;7.126;2023-05-21T02:22:57;15.63;;;11.32;;
9140;SDS011;46330;50.822;7.126;2023-05-21T02:25:25;18.58;;;11.70;;
9140;SDS011;46330;50.822;7.126;2023-05-21T02:27:53;16.23;;;11.43;;
9140;SDS011;46330;50.822;7.126;2023-05-21T02:30:23;16.98;;;11.73;;
9140;SDS011;46330;50.822;7.126;2023-05-21T02:32:51;17.25;;;11.80;;
9140;SDS011;46330;50.822;7.126;2023-05-21T02:35:20;18.65;;;11.98;;
9140;SDS011;46330;50.822;7.126;2023-05-21T02:37:48;17.67;;;11.63;;
9140;SDS011;46330;50.822;7.126;2023-05-21T02:40:16;17.00;;;11.95;;
9140;SDS011;46330;50.822;7.126;2023-05-21T02:42:44;17.77;;;11.25;;
9140;SDS011;46330;50.822;7.126;2023-05-21T02:45:17;17.90;;;11.35;;
9140;SDS011;46330;50.822;7.126;2023-05-21T02:47:46;18.33;;;11.88;;
9140;SDS011;46330;50.822;7.126;2023-05-21T02:50:17;23.15;;;12.48;;
9140;SDS011;46330;50.822;7.126;2023-05-21T02:52:53;17.73;;;11.63;;
9140;SDS011;46330;50.822;7.126;2023-05-21T02:55:21;17.90;;;12.10;;
9140;SDS011;46330;50.822;7.126;2023-05-21T02:57:49;19.48;;;12.30;;
9140;SDS011;46330;50.822;7.126;2023-05-21T03:00:17;17.40;;;11.63;;
9140;SDS011;46330;50.822;7.126;2023-05-21T03:02:47;19.20;;;10.88;;
9140;SDS011;46330;50.822;7.126;2023-05-21T03:05:15;17.90;;;11.48;;
9140;SDS011;46330;50.822;7.126;2023-05-21T03:07:43;19.67;;;11.77;;
9140;SDS011;46330;50.822;7.126;2023-05-21T03:10:11;17.70;;;11.30;;
9140;SDS011;46330;50.822;7.126;2023-05-21T03:12:39;17.90;;;11.35;;
9140;SDS011;46330;50.822;7.126;2023-05-21T03:15:08;20.75;;;11.77;;
9140;SDS011;46330;50.822;7.126;2023-05-21T03:17:36;16.25;;;11.60;;
9140;SDS011;46330;50.822;7.126;2023-05-21T03:20:07;15.20;;;11.15;;
9140;SDS011;46330;50.822;7.126;2023-05-21T03:22:41;15.48;;;10.35;;
9140;SDS011;46330;50.822;7.126;2023-05-21T03:25:11;17.73;;;11.32;;
9140;SDS011;46330;50.822;7.126;2023-05-21T03:27:39;17.23;;;11.13;;
9140;SDS011;46330;50.822;7.126;2023-05-21T03:30:22;16.08;;;10.85;;
9140;SDS011;46330;50.822;7.126;2023-05-21T03:33:17;16.45;;;11.00;;
9140;SDS011;46330;50.822;7.126;2023-05-21T03:35:46;18.58;;;11.10;;
9140;SDS011;46330;50.822;7.126;2023-05-21T03:38:14;18.33;;;11.00;;
9140;SDS011;46330;50.822;7.126;2023-05-21T03:40:42;15.50;;;11.13;;
9140;SDS011;46330;50.822;7.126;2023-05-21T03:43:11;15.80;;;11.00;;
9140;SDS011;46330;50.822;7.126;2023-05-21T03:45:39;17.65;;;11.35;;
9140;SDS011;46330;50.822;7.126;2023-05-21T03:48:48;15.10;;;10.40;;
9140;SDS011;46330;50.822;7.126;2023-05-21T03:51:22;16.33;;;11.40;;
9140;SDS011;46330;50.822;7.126;2023-05-21T03:53:51;15.30;;;11.32;;
9140;SDS011;46330;50.822;7.126;2023-05-21T03:56:19;15.52;;;10.85;;
9140;SDS011;46330;50.822;7.126;2023-05-21T03:58:48;14.88;;;11.10;;
9140;SDS011;46330;50.822;7.126;2023-05-21T04:01:16;18.23;;;12.77;;
9140;SDS011;46330;50.822;7.126;2023-05-21T04:03:46;16.42;;;11.25;;
9140;SDS011;46330;50.822;7.126;2023-05-21T04:06:16;16.83;;;10.98;;
9140;SDS011;46330;50.822;7.126;2023-05-21T04:08:45;16.52;;;11.57;;
9140;SDS011;46330;50.822;7.126;2023-05-21T04:11:13;15.40;;;10.40;;
9140;SDS011;46330;50.822;7.126;2023-05-21T04:13:42;16.30;;;9.88;;
9140;SDS011;46330;50.822;7.126;2023-05-21T04:16:10;15.65;;;10.18;;
9140;SDS011;46330;50.822;7.126;2023-05-21T04:18:40;14.77;;;10.00;;
9140;SDS011;46330;50.822;7.126;2023-05-21T04:21:12;16.00;;;10.13;;
9140;SDS011;46330;50.822;7.126;2023-05-21T04:23:40;18.58;;;11.23;;
9140;SDS011;46330;50.822;7.126;2023-05-21T04:26:22;15.88;;;10.35;;
9140;SDS011;46330;50.822;7.126;2023-05-21T04:28:50;16.58;;;11.23;;
9140;SDS011;46330;50.822;7.126;2023-05-21T04:31:20;12.98;;;9.77;;
9140;SDS011;46330;50.822;7.126;2023-05-21T04:33:49;13.35;;;9.85;;
9140;SDS011;46330;50.822;7.126;2023-05-21T04:36:17;13.00;;;10.30;;
9140;SDS011;46330;50.822;7.126;2023-05-21T04:38:45;15.10;;;10.45;;
9140;SDS011;46330;50.822;7.126;2023-05-21T04:41:14;13.82;;;10.40;;
9140;SDS011;46330;50.822;7.126;2023-05-21T04:43:45;13.82;;;10.00;;
9140;SDS011;46330;50.822;7.126;2023-05-21T04:46:15;14.18;;;9.82;;
9140;SDS011;46330;50.822;7.126;2023-05-21T04:48:43;18.13;;;11.60;;
9140;SDS011;46330;50.822;7.126;2023-05-21T04:51:12;15.38;;;10.25;;
9140;SDS011;46330;50.822;7.126;2023-05-21T04:53:40;17.58;;;10.38;;
9140;SDS011;46330;50.822;7.126;2023-05-21T04:56:08;14.98;;;10.20;;
9140;SDS011;46330;50.822;7.126;2023-05-21T04:58:36;14.60;;;10.32;;
9140;SDS011;46330;50.822;7.126;2023-05-21T05:01:07;13.93;;;10.05;;
9140;SDS011;46330;50.822;7.126;2023-05-21T05:03:35;14.38;;;10.18;;
9140;SDS011;46330;50.822;7.126;2023-05-21T05:06:03;16.25;;;9.73;;
9140;SDS011;46330;50.822;7.126;2023-05-21T05:08:33;14.13;;;10.25;;
9140;SDS011;46330;50.822;7.126;2023-05-21T05:11:02;20.98;;;10.43;;
9140;SDS011;46330;50.822;7.126;2023-05-21T05:13:31;14.88;;;9.27;;
9140;SDS011;46330;50.822;7.126;2023-05-21T05:15:59;13.75;;;9.77;;
9140;SDS011;46330;50.822;7.126;2023-05-21T05:18:29;13.02;;;9.68;;
9140;SDS011;46330;50.822;7.126;2023-05-21T05:20:57;14.50;;;9.52;;
9140;SDS011;46330;50.822;7.126;2023-05-21T05:23:25;13.65;;;9.65;;
9140;SDS011;46330;50.822;7.126;2023-05-21T05:25:53;13.95;;;10.07;;
9140;SDS011;46330;50.822;7.126;2023-05-21T05:28:21;12.32;;;9.10;;
9140;SDS011;46330;50.822;7.126;2023-05-21T05:30:49;18.23;;;13.05;;
9140;SDS011;46330;50.822;7.126;2023-05-21T05:33:26;14.32;;;10.00;;
9140;SDS011;46330;50.822;7.126;2023-05-21T05:35:55;13.13;;;9.30;;
9140;SDS011;46330;50.822;7.126;2023-05-21T05:38:24;13.98;;;8.75;;
9140;SDS011;46330;50.822;7.126;2023-05-21T05:40:52;12.02;;;8.77;;
9140;SDS011;46330;50.822;7.126;2023-05-21T05:43:20;13.85;;;8.90;;
9140;SDS011;46330;50.822;7.126;2023-05-21T05:45:48;14.18;;;9.65;;
9140;SDS011;46330;50.822;7.126;2023-05-21T05:48:17;18.65;;;9.88;;
9140;SDS011;46330;50.822;7.126;2023-05-21T05:50:46;13.95;;;8.95;;
9140;SDS011;46330;50.822;7.126;2023-05-21T05:53:16;14.93;;;8.98;;
9140;SDS011;46330;50.822;7.126;2023-05-21T05:55:43;12.75;;;8.82;;
9140;SDS011;46330;50.822;7.126;2023-05-21T05:58:12;13.10;;;8.48;;
9140;SDS011;46330;50.822;7.126;2023-05-21T06:00:49;11.93;;;8.20;;
9140;SDS011;46330;50.822;7.126;2023-05-21T06:03:17;12.63;;;8.38;;
9140;SDS011;46330;50.822;7.126;2023-05-21T06:05:46;13.05;;;8.60;;
9140;SDS011;46330;50.822;7.126;2023-05-21T06:08:16;11.00;;;7.68;;
9140;SDS011;46330;50.822;7.126;2023-05-21T06:10:44;12.25;;;9.60;;
9140;SDS011;46330;50.822;7.126;2023-05-21T06:13:13;14.02;;;9.48;;
9140;SDS011;46330;50.822;7.126;2023-05-21T06:15:41;12.98;;;8.50;;
9140;SDS011;46330;50.822;7.126;2023-05-21T06:18:09;10.52;;;7.97;;
9140;SDS011;46330;50.822;7.126;2023-05-21T06:20:37;11.13;;;8.10;;
9140;SDS011;46330;50.822;7.126;2023-05-21T06:23:06;13.05;;;8.38;;
9140;SDS011;46330;50.822;7.126;2023-05-21T06:25:37;12.82;;;8.75;;
9140;SDS011;46330;50.822;7.126;2023-05-21T06:28:06;12.27;;;8.23;;
9140;SDS011;46330;50.822;7.126;2023-05-21T06:30:34;11.93;;;7.95;;
9140;SDS011;46330;50.822;7.126;2023-05-21T06:33:02;11.60;;;8.00;;
9140;SDS011;46330;50.822;7.126;2023-05-21T06:35:31;11.95;;;7.97;;
9140;SDS011;46330;50.822;7.126;2023-05-21T06:38:02;12.93;;;7.88;;
9140;SDS011;46330;50.822;7.126;2023-05-21T06:40:31;10.50;;;7.88;;
9140;SDS011;46330;50.822;7.126;2023-05-21T06:43:00;12.43;;;7.85;;
9140;SDS011;46330;50.822;7.126;2023-05-21T06:45:48;12.65;;;7.80;;
9140;SDS011;46330;50.822;7.126;2023-05-21T06:48:26;13.13;;;7.82;;
9140;SDS011;46330;50.822;7.126;2023-05-21T06:50:54;12.68;;;7.68;;
9140;SDS011;46330;50.822;7.126;2023-05-21T06:53:22;12.45;;;7.82;;
9140;SDS011;46330;50.822;7.126;2023-05-21T06:55:50;10.40;;;7.75;;
9140;SDS011;46330;50.822;7.126;2023-05-21T06:58:36;10.93;;;7.70;;
9140;SDS011;46330;50.822;7.126;2023-05-21T07:01:04;11.73;;;7.60;;
9140;SDS011;46330;50.822;7.126;2023-05-21T07:03:33;11.15;;;8.00;;
9140;SDS011;46330;50.822;7.126;2023-05-21T07:06:02;10.90;;;8.10;;
9140;SDS011;46330;50.822;7.126;2023-05-21T07:08:30;11.88;;;8.73;;
9140;SDS011;46330;50.822;7.126;2023-05-21T07:10:59;10.98;;;8.27;;
9140;SDS011;46330;50.822;7.126;2023-05-21T07:13:28;12.07;;;7.78;;
9140;SDS011;46330;50.822;7.126;2023-05-21T07:15:57;10.45;;;7.40;;
9140;SDS011;46330;50.822;7.126;2023-05-21T07:18:26;13.75;;;7.65;;
9140;SDS011;46330;50.822;7.126;2023-05-21T07:20:54;11.73;;;7.85;;
9140;SDS011;46330;50.822;7.126;2023-05-21T07:23:23;9.65;;;6.95;;
9140;SDS011;46330;50.822;7.126;2023-05-21T07:25:51;10.02;;;7.30;;
9140;SDS011;46330;50.822;7.126;2023-05-21T07:28:20;11.70;;;7.30;;
9140;SDS011;46330;50.822;7.126;2023-05-21T07:30:48;11.20;;;7.25;;
9140;SDS011;46330;50.822;7.126;2023-05-21T07:33:22;11.50;;;7.13;;
9140;SDS011;46330;50.822;7.126;2023-05-21T07:35:51;9.95;;;7.32;;
9140;SDS011;46330;50.822;7.126;2023-05-21T07:38:19;9.50;;;6.97;;
9140;SDS011;46330;50.822;7.126;2023-05-21T07:40:47;11.18;;;7.25;;
9140;SDS011;46330;50.822;7.126;2023-05-21T07:43:15;11.60;;;7.60;;
9140;SDS011;46330;50.822;7.126;2023-05-21T07:45:43;10.40;;;7.15;;
9140;SDS011;46330;50.822;7.126;2023-05-21T07:48:11;9.82;;;7.22;;
9140;SDS011;46330;50.822;7.126;2023-05-21T07:50:51;11.43;;;7.95;;
9140;SDS011;46330;50.822;7.126;2023-05-21T07:53:19;9.32;;;7.35;;
9140;SDS011;46330;50.822;7.126;2023-05-21T07:55:48;8.98;;;7.03;;
9140;SDS011;46330;50.822;7.126;2023-05-21T07:58:22;10.05;;;7.30;;
9140;SDS011;46330;50.822;7.126;2023-05-21T08:00:51;9.98;;;7.15;;
9140;SDS011;46330;50.822;7.126;2023-05-21T08:03:19;11.40;;;7.38;;
9140;SDS011;46330;50.822;7.126;2023-05-21T08:05:48;8.65;;;7.22;;
9140;SDS011;46330;50.822;7.126;2023-05-21T08:08:18;9.70;;;7.07;;
9140;SDS011;46330;50.822;7.126;2023-05-21T08:10:49;10.52;;;7.22;;
9140;SDS011;46330;50.822;7.126;2023-05-21T08:13:17;12.63;;;7.72;;
9140;SDS011;46330;50.822;7.126;2023-05-21T08:15:47;11.32;;;7.45;;
9140;SDS011;46330;50.822;7.126;2023-05-21T08:18:19;16.08;;;8.10;;
9140;SDS011;46330;50.822;7.126;2023-05-21T08:20:51;11.07;;;7.78;;
9140;SDS011;46330;50.822;7.126;2023-05-21T08:23:21;12.52;;;8.10;;
9140;SDS011;46330;50.822;7.126;2023-05-21T08:25:53;11.38;;;7.88;;
9140;SDS011;46330;50.822;7.126;2023-05-21T08:28:21;12.27;;;7.72;;
9140;SDS011;46330;50.822;7.126;2023-05-21T08:30:50;13.40;;;8.35;;
9140;SDS011;46330;50.822;7.126;2023-05-21T08:33:20;10.68;;;7.82;;
9140;SDS011;46330;50.822;7.126;2023-05-21T08:35:48;11.13;;;7.93;;
9140;SDS011;46330;50.822;7.126;2023-05-21T08:38:40;13.00;;;7.85;;
9140;SDS011;46330;50.822;7.126;2023-05-21T08:41:13;10.10;;;7.32;;
9140;SDS011;46330;50.822;7.126;2023-05-21T08:43:44;11.05;;;7.75;;
9140;SDS011;46330;50.822;7.126;2023-05-21T08:46:17;11.23;;;7.25;;
9140;SDS011;46330;50.822;7.126;2023-05-21T08:48:48;10.45;;;7.50;;
9140;SDS011;46330;50.822;7.126;2023-05-21T08:51:20;11.90;;;7.10;;
9140;SDS011;46330;50.822;7.126;2023-05-21T08:53:52;10.15;;;7.07;;
9140;SDS011;46330;50.822;7.126;2023-05-21T08:56:22;9.02;;;6.93;;
9140;SDS011;46330;50.822;7.126;2023-05-21T08:58:56;9.02;;;6.68;;
9140;SDS011;46330;50.822;7.126;2023-05-21T09:01:29;9.55;;;6.90;;
9140;SDS011;46330;50.822;7.126;2023-05-21T09:04:11;9.48;;;6.70;;
9140;SDS011;46330;50.822;7.126;2023-05-21T09:06:50;9.60;;;7.00;;
9140;SDS011;46330;50.822;7.126;2023-05-21T09:09:44;8.73;;;6.75;;
9140;SDS011;46330;50.822;7.126;2023-05-21T09:12:15;9.68;;;7.22;;
9140;SDS011;46330;50.822;7.126;2023-05-21T09:14:44;9.02;;;6.97;;
9140;SDS011;46330;50.822;7.126;2023-05-21T09:17:17;10.70;;;6.53;;
9140;SDS011;46330;50.822;7.126;2023-05-21T09:20:04;11.13;;;6.50;;
9140;SDS011;46330;50.822;7.126;2023-05-21T09:22:40;10.00;;;6.93;;
9140;SDS011;46330;50.822;7.126;2023-05-21T09:25:11;9.20;;;6.60;;
9140;SDS011;46330;50.822;7.126;2023-05-21T09:27:40;9.50;;;6.72;;
9140;SDS011;46330;50.822;7.126;2023-05-21T09:30:09;9.25;;;6.07;;
9140;SDS011;46330;50.822;7.126;2023-05-21T09:32:38;11.23;;;6.53;;
9140;SDS011;46330;50.822;7.126;2023-05-21T09:35:08;9.48;;;7.20;;
9140;SDS011;46330;50.822;7.126;2023-05-21T09:37:37;8.70;;;6.78;;
9140;SDS011;46330;50.822;7.126;2023-05-21T09:40:11;7.88;;;6.57;;
9140;SDS011;46330;50.822;7.126;2023-05-21T09:42:44;9.25;;;6.25;;
9140;SDS011;46330;50.822;7.126;2023-05-21T09:45:16;9.60;;;6.35;;
9140;SDS011;46330;50.822;7.126;2023-05-21T09:47:45;8.80;;;7.10;;
9140;SDS011;46330;50.822;7.126;2023-05-21T09:50:16;8.63;;;6.10;;
9140;SDS011;46330;50.822;7.126;2023-05-21T09:52:45;12.45;;;6.63;;
9140;SDS011;46330;50.822;7.126;2023-05-21T09:55:17;10.07;;;6.57;;
9140;SDS011;46330;50.822;7.126;2023-05-21T09:57:48;8.93;;;6.25;;
9140;SDS011;46330;50.822;7.126;2023-05-21T10:00:17;8.40;;;6.10;;
9140;SDS011;46330;50.822;7.126;2023-05-21T10:02:47;9.35;;;6.25;;
9140;SDS011;46330;50.822;7.126;2023-05-21T10:05:16;8.30;;;6.15;;
9140;SDS011;46330;50.822;7.126;2023-05-21T10:07:46;7.35;;;5.38;;
9140;SDS011;46330;50.822;7.126;2023-05-21T10:10:21;8.38;;;6.32;;
9140;SDS011;46330;50.822;7.126;2023-05-21T10:12:51;6.68;;;5.85;;
9140;SDS011;46330;50.822;7.126;2023-05-21T10:15:22;7.70;;;5.75;;
9140;SDS011;46330;50.822;7.126;2023-05-21T10:17:59;8.13;;;5.70;;
9140;SDS011;46330;50.822;7.126;2023-05-21T10:20:30;9.88;;;5.72;;
9140;SDS011;46330;50.822;7.126;2023-05-21T10:23:02;10.65;;;5.80;;
9140;SDS011;46330;50.822;7.126;2023-05-21T10:25:33;8.85;;;6.00;;
9140;SDS011;46330;50.822;7.126;2023-05-21T10:28:03;9.23;;;6.20;;
9140;SDS011;46330;50.822;7.126;2023-05-21T10:30:41;8.25;;;5.85;;
9140;SDS011;46330;50.822;7.126;2023-05-21T10:33:10;6.82;;;5.55;;
9140;SDS011;46330;50.822;7.126;2023-05-21T10:35:39;9.35;;;6.32;;
9140;SDS011;46330;50.822;7.126;2023-05-21T10:38:07;9.10;;;6.00;;
9140;SDS011;46330;50.822;7.126;2023-05-21T10:40:37;12.10;;;6.53;;
9140;SDS011;46330;50.822;7.126;2023-05-21T10:43:21;7.75;;;6.00;;
9140;SDS011;46330;50.822;7.126;2023-05-21T10:46:06;9.07;;;5.80;;
9140;SDS011;46330;50.822;7.126;2023-05-21T10:48:56;9.75;;;6.30;;
9140;SDS011;46330;50.822;7.126;2023-05-21T10:51:38;7.32;;;5.60;;
9140;SDS011;46330;50.822;7.126;2023-05-21T10:54:29;8.18;;;6.45;;
9140;SDS011;46330;50.822;7.126;2023-05-21T11:00:36;9.07;;;6.13;;
9140;SDS011;46330;50.822;7.126;2023-05-21T11:03:05;8.10;;;6.40;;
9140;SDS011;46330;50.822;7.126;2023-05-21T11:05:37;9.07;;;6.10;;
9140;SDS011;46330;50.822;7.126;2023-05-21T11:08:17;8.97;;;5.87;;
9140;SDS011;46330;50.822;7.126;2023-05-21T11:10:52;9.50;;;6.20;;
9140;SDS011;46330;50.822;7.126;2023-05-21T11:13:22;7.72;;;6.13;;
9140;SDS011;46330;50.822;7.126;2023-05-21T11:21:21;7.63;;;6.10;;
9140;SDS011;46330;50.822;7.126;2023-05-21T11:23:51;8.82;;;6.22;;
9140;SDS011;46330;50.822;7.126;2023-05-21T11:26:21;9.75;;;6.10;;
9140;SDS011;46330;50.822;7.126;2023-05-21T11:28:51;7.97;;;6.07;;
9140;SDS011;46330;50.822;7.126;2023-05-21T11:31:33;8.30;;;6.10;;
9140;SDS011;46330;50.822;7.126;2023-05-21T11:34:09;9.40;;;6.25;;
9140;SDS011;46330;50.822;7.126;2023-05-21T11:36:39;11.63;;;6.43;;
9140;SDS011;46330;50.822;7.126;2023-05-21T11:39:08;10.30;;;6.75;;
9140;SDS011;46330;50.822;7.126;2023-05-21T11:41:50;9.63;;;6.32;;
9140;SDS011;46330;50.822;7.126;2023-05-21T11:44:21;9.65;;;6.78;;
9140;SDS011;46330;50.822;7.126;2023-05-21T11:47:05;11.88;;;6.53;;
9140;SDS011;46330;50.822;7.126;2023-05-21T11:49:35;7.95;;;6.03;;
9140;SDS011;46330;50.822;7.126;2023-05-21T11:52:04;7.80;;;5.95;;
9140;SDS011;46330;50.822;7.126;2023-05-21T11:54:38;9.30;;;6.53;;
9140;SDS011;46330;50.822;7.126;2023-05-21T11:57:07;8.82;;;5.82;;
9140;SDS011;46330;50.822;7.126;2023-05-21T11:59:37;8.07;;;6.85;;
9140;SDS011;46330;50.822;7.126;2023-05-21T12:02:06;8.15;;;6.40;;
9140;SDS011;46330;50.822;7.126;2023-05-21T12:04:34;8.18;;;6.00;;
9140;SDS011;46330;50.822;7.126;2023-05-21T12:07:03;7.82;;;6.40;;
9140;SDS011;46330;50.822;7.126;2023-05-21T12:09:37;7.65;;;5.80;;
9140;SDS011;46330;50.822;7.126;2023-05-21T12:12:06;9.27;;;6.22;;
9140;SDS011;46330;50.822;7.126;2023-05-21T12:14:35;11.45;;;6.13;;
9140;SDS011;46330;50.822;7.126;2023-05-21T12:17:05;7.45;;;5.85;;
9140;SDS011;46330;50.822;7.126;2023-05-21T12:19:36;11.32;;;6.28;;
9140;SDS011;46330;50.822;7.126;2023-05-21T12:22:04;8.32;;;6.07;;
9140;SDS011;46330;50.822;7.126;2023-05-21T12:24:33;8.13;;;6.10;;
9140;SDS011;46330;50.822;7.126;2023-05-21T12:27:02;9.55;;;5.68;;
9140;SDS011;46330;50.822;7.126;2023-05-21T12:29:35;8.80;;;5.77;;
9140;SDS011;46330;50.822;7.126;2023-05-21T12:32:06;8.77;;;6.25;;
9140;SDS011;46330;50.822;7.126;2023-05-21T12:34:39;7.88;;;5.70;;
9140;SDS011;46330;50.822;7.126;2023-05-21T12:37:10;10.32;;;6.20;;
9140;SDS011;46330;50.822;7.126;2023-05-21T12:39:39;9.25;;;6.70;;
9140;SDS011;46330;50.822;7.126;2023-05-21T12:42:08;9.57;;;6.18;;
9140;SDS011;46330;50.822;7.126;2023-05-21T12:44:37;11.05;;;5.80;;
9140;SDS011;46330;50.822;7.126;2023-05-21T12:47:07;9.27;;;6.13;;
9140;SDS011;46330;50.822;7.126;2023-05-21T12:49:37;7.97;;;6.40;;
9140;SDS011;46330;50.822;7.126;2023-05-21T12:52:09;7.82;;;5.93;;
9140;SDS011;46330;50.822;7.126;2023-05-21T12:54:39;8.48;;;5.95;;
9140;SDS011;46330;50.822;7.126;2023-05-21T12:57:08;7.50;;;6.40;;
9140;SDS011;46330;50.822;7.126;2023-05-21T12:59:43;8.05;;;5.97;;
9140;SDS011;46330;50.822;7.126;2023-05-21T13:02:17;8.32;;;6.28;;
9140;SDS011;46330;50.822;7.126;2023-05-21T13:04:46;9.45;;;6.35;;
9140;SDS011;46330;50.822;7.126;2023-05-21T13:07:20;7.63;;;6.10;;
9140;SDS011;46330;50.822;7.126;2023-05-21T13:09:48;9.93;;;6.38;;
9140;SDS011;46330;50.822;7.126;2023-05-21T13:12:18;7.30;;;6.07;;
9140;SDS011;46330;50.822;7.126;2023-05-21T13:14:48;8.25;;;6.60;;
9140;SDS011;46330;50.822;7.126;2023-05-21T13:17:18;7.88;;;6.07;;
9140;SDS011;46330;50.822;7.126;2023-05-21T13:22:34;8.80;;;5.75;;
9140;SDS011;46330;50.822;7.126;2023-05-21T13:25:04;9.18;;;6.38;;
9140;SDS011;46330;50.822;7.126;2023-05-21T13:27:33;7.85;;;6.10;;
9140;SDS011;46330;50.822;7.126;2023-05-21T13:30:01;12.35;;;6.18;;
9140;SDS011;46330;50.822;7.126;2023-05-21T13:32:31;9.50;;;6.57;;
9140;SDS011;46330;50.822;7.126;2023-05-21T13:34:59;8.65;;;6.53;;
9140;SDS011;46330;50.822;7.126;2023-05-21T13:37:27;7.35;;;6.00;;
9140;SDS011;46330;50.822;7.126;2023-05-21T13:39:58;7.55;;;6.28;;
9140;SDS011;46330;50.822;7.126;2023-05-21T13:42:27;10.70;;;6.30;;
9140;SDS011;46330;50.822;7.126;2023-05-21T13:44:55;8.27;;;6.20;;
9140;SDS011;46330;50.822;7.126;2023-05-21T13:47:23;7.47;;;6.20;;
9140;SDS011;46330;50.822;7.126;2023-05-21T13:49:52;8.20;;;6.18;;
9140;SDS011;46330;50.822;7.126;2023-05-21T13:52:20;9.20;;;6.35;;
9140;SDS011;46330;50.822;7.126;2023-05-21T13:54:49;8.05;;;6.43;;
9140;SDS011;46330;50.822;7.126;2023-05-21T13:57:17;10.23;;;7.10;;
9140;SDS011;46330;50.822;7.126;2023-05-21T13:59:46;9.05;;;5.88;;
9140;SDS011;46330;50.822;7.126;2023-05-21T14:02:15;8.98;;;6.10;;
9140;SDS011;46330;50.822;7.126;2023-05-21T14:04:43;9.05;;;6.75;;
9140;SDS011;46330;50.822;7.126;2023-05-21T14:07:13;10.27;;;6.90;;
9140;SDS011;46330;50.822;7.126;2023-05-21T14:09:41;9.02;;;6.43;;
9140;SDS011;46330;50.822;7.126;2023-05-21T14:12:09;9.45;;;7.00;;
9140;SDS011;46330;50.822;7.126;2023-05-21T14:14:37;9.27;;;6.28;;
9140;SDS011;46330;50.822;7.126;2023-05-21T14:17:05;9.32;;;6.82;;
9140;SDS011;46330;50.822;7.126;2023-05-21T14:19:33;9.57;;;6.88;;
9140;SDS011;46330;50.822;7.126;2023-05-21T14:22:02;8.20;;;6.93;;
9140;SDS011;46330;50.822;7.126;2023-05-21T14:24:32;8.07;;;6.60;;
9140;SDS011;46330;50.822;7.126;2023-05-21T14:27:00;12.48;;;8.35;;
9140;SDS011;46330;50.822;7.126;2023-05-21T14:29:28;9.70;;;7.50;;
9140;SDS011;46330;50.822;7.126;2023-05-21T14:31:55;9.38;;;7.55;;
9140;SDS011;46330;50.822;7.126;2023-05-21T14:34:23;10.70;;;7.70;;
9140;SDS011;46330;50.822;7.126;2023-05-21T14:36:51;9.13;;;7.70;;
9140;SDS011;46330;50.822;7.126;2023-05-21T14:39:19;9.07;;;7.40;;
9140;SDS011;46330;50.822;7.126;2023-05-21T14:41:49;9.57;;;7.72;;
9140;SDS011;46330;50.822;7.126;2023-05-21T14:44:17;9.93;;;8.07;;
9140;SDS011;46330;50.822;7.126;2023-05-21T14:46:45;12.75;;;7.65;;
9140;SDS011;46330;50.822;7.126;2023-05-21T14:49:13;9.35;;;7.32;;
9140;SDS011;46330;50.822;7.126;2023-05-21T14:51:41;7.90;;;6.78;;
9140;SDS011;46330;50.822;7.126;2023-05-21T14:54:10;8.55;;;6.72;;
9140;SDS011;46330;50.822;7.126;2023-05-21T14:56:38;11.60;;;7.07;;
9140;SDS011;46330;50.822;7.126;2023-05-21T14:59:07;9.73;;;7.55;;
9140;SDS011;46330;50.822;7.126;2023-05-21T15:01:36;10.63;;;7.05;;
9140;SDS011;46330;50.822;7.126;2023-05-21T15:04:04;14.15;;;9.60;;
9140;SDS011;46330;50.822;7.126;2023-05-21T15:06:33;11.35;;;7.65;;
9140;SDS011;46330;50.822;7.126;2023-05-21T15:09:01;8.50;;;7.05;;
9140;SDS011;46330;50.822;7.126;2023-05-21T15:11:29;10.82;;;8.63;;
9140;SDS011;46330;50.822;7.126;2023-05-21T15:13:59;13.82;;;11.18;;
9140;SDS011;46330;50.822;7.126;2023-05-21T15:16:28;11.00;;;7.75;;
9140;SDS011;46330;50.822;7.126;2023-05-21T15:18:56;11.85;;;6.95;;